Thunder radar more information blitzortung!


Radar de pluja more information rain snow radar


Visita la nostra xarxa de llocs de meteo:

Template documentation
and downloads

And another site



No particular awareness of the weather is required.    There are no Weather-warnings

Pagina Historial Weather Underground text

Diari Resum May 25, 2017 Unitats:  Imperial    Mètric   Tant
« Previous Dia
SegĂźent Dia »
Diari Setmana Mensual Anual Personalitzada
  Maxima: Minima: Media:
Temperatura: TemperatureC °F 16.4 °F 26.2 °F
Punt de rosada: DewpointC °F 4.8 °F 8.5 °F
Humitat: Humidity % 22 % 35 %
Wind Speed: WindSpeedKMH mph 0.0 mph 6.8 mph
RĂ fegues de vent: WindSpeedGustKMH mph - -
Vent:- - SW
Pression baro: PressurehPa in 1010.0 in -
Precipitacions: 0.0 in    
Historical Graphs
 
 
Dades de taula per May 25, 2017
Temps Temperatura Punt de rosada Pression baro Vent Wind Speed RĂ fegues de vent Humitat Rainfall Rate (Hourly)
TemperatureC °F DewpointC °F PressurehPa in Calm     Humidity % HourlyPrecipMM in
00:00 21.2 °F 6.7 °F 1016.8 in WSW 4.7 mph 4.7 mph 39 % 0.0 in
00:05 21.1 °F 6.9 °F 1016.8 in SW 3.7 mph 3.7 mph 40 % 0.0 in
00:15 17.0 °F 7.6 °F 1014.8 in WSW 1.6 mph 3.2 mph 54 % 0.0 in
00:25 17.2 °F 7.8 °F 1013.8 in Calm   4.8 mph 54 % 0.0 in
00:35 16.9 °F 8.1 °F 1013.8 in Calm   3.2 mph 56 % 0.0 in
00:45 17.0 °F 7.9 °F 1014.8 in Calm   1.6 mph 55 % 0.0 in
00:55 17.0 °F 7.9 °F 1014.8 in Calm   1.6 mph 55 % 0.0 in
01:05 17.0 °F 7.9 °F 1014.8 in Calm     55 % 0.0 in
01:15 17.1 °F 8.0 °F 1013.8 in West 1.6 mph 3.2 mph 55 % 0.0 in
01:25 17.0 °F 7.9 °F 1013.8 in WSW 3.2 mph 3.2 mph 55 % 0.0 in
01:35 16.5 °F 7.7 °F 1013.8 in SW 1.6 mph 3.2 mph 56 % 0.0 in
01:45 16.5 °F 8.2 °F 1013.8 in SW 1.6 mph 1.6 mph 58 % 0.0 in
01:55 16.8 °F 8.5 °F 1013.8 in Calm   1.6 mph 58 % 0.0 in
02:05 16.6 °F 8.3 °F 1013.8 in SSE 1.6 mph 1.6 mph 58 % 0.0 in
02:15 16.7 °F 8.4 °F 1014.8 in SSW 1.6 mph 1.6 mph 58 % 0.0 in
02:25 17.1 °F 8.8 °F 1013.8 in Calm   1.6 mph 58 % 0.0 in
02:35 18.0 °F 9.3 °F 1013.8 in Calm     57 % 0.0 in
02:45 18.7 °F 10.0 °F 1013.8 in Calm   1.6 mph 57 % 0.0 in
02:55 18.5 °F 9.6 °F 1014.8 in Calm   1.6 mph 56 % 0.0 in
03:05 18.2 °F 9.3 °F 1014.8 in SW 1.6 mph 3.2 mph 56 % 0.0 in
03:15 19.5 °F 9.9 °F 1014.8 in South 1.6 mph 3.2 mph 54 % 0.0 in
03:25 20.2 °F 10.3 °F 1014.8 in ENE 3.2 mph 3.2 mph 53 % 0.0 in
03:35 20.4 °F 10.5 °F 1014.8 in ENE 4.8 mph 4.8 mph 53 % 0.0 in
03:45 21.0 °F 10.8 °F 1013.8 in Calm   1.6 mph 52 % 0.0 in
03:55 21.7 °F 11.1 °F 1014.8 in SSE 1.6 mph 1.6 mph 51 % 0.0 in
04:05 22.8 °F 11.8 °F 1014.8 in Calm   3.2 mph 50 % 0.0 in
04:15 22.2 °F 11.3 °F 1014.8 in SSW 1.6 mph 3.2 mph 50 % 0.0 in
04:25 22.6 °F 11.3 °F 1014.8 in SW 3.2 mph 3.2 mph 49 % 0.0 in
04:35 23.5 °F 11.8 °F 1014.8 in WSW 1.6 mph 3.2 mph 48 % 0.0 in
04:45 24.2 °F 12.5 °F 1014.8 in WSW 1.6 mph 4.8 mph 48 % 0.0 in
04:55 24.4 °F 12.3 °F 1014.8 in SW 3.2 mph 4.8 mph 47 % 0.0 in
05:05 24.9 °F 12.5 °F 1014.8 in SW 1.6 mph 4.8 mph 46 % 0.0 in
05:15 25.7 °F 12.6 °F 1014.8 in SSW 1.6 mph 4.8 mph 44 % 0.0 in
05:25 26.4 °F 13.2 °F 1013.8 in SSW 1.6 mph 3.2 mph 44 % 0.0 in
05:35 27.0 °F 13.0 °F 1013.8 in SSW 1.6 mph 4.8 mph 42 % 0.0 in
05:45 27.8 °F 13.3 °F 1013.8 in South 1.6 mph 4.8 mph 41 % 0.0 in
05:50 27.7 °F 13.3 °F 1013.8 in South 1.6 mph 3.2 mph 41 % 0.0 in
10:50 27.7 °F 13.3 °F 1013.8 in NE 1.9 mph 2.3 mph 41 % 0.0 in
10:55 27.8 °F 12.9 °F 1013.8 in West 6.1 mph 6.1 mph 40 % 0.0 in
11:00 27.4 °F 12.2 °F 1013.8 in NNE 5.6 mph 5.6 mph 39 % 0.0 in
11:05 28.0 °F 13.2 °F 1013.8 in West 9.0 mph 9.0 mph 40 % 0.0 in
11:10 28.0 °F 12.8 °F 1013.8 in WSW 3.7 mph 3.7 mph 39 % 0.0 in
11:15 28.7 °F 13.4 °F 1013.8 in SW 5.6 mph 5.6 mph 39 % 0.0 in
11:20 29.6 °F 13.4 °F 1013.8 in SSW 5.6 mph 5.6 mph 37 % 0.0 in
11:25 29.7 °F 13.1 °F 1013.8 in SSE 3.7 mph 3.7 mph 36 % 0.0 in
11:30 30.0 °F 12.9 °F 1013.8 in SW 5.8 mph 5.8 mph 35 % 0.0 in
11:35 30.4 °F 11.8 °F 1013.8 in SE 3.7 mph 3.7 mph 32 % 0.0 in
11:40 30.6 °F 12.5 °F 1013.8 in SSW 7.4 mph 7.4 mph 33 % 0.0 in
11:41 30.6 °F 12.0 °F 1013.8 in SSE 3.9 mph 3.9 mph 32 % 0.0 in
11:46 30.5 °F 11.9 °F 1013.8 in West 9.5 mph 9.5 mph 32 % 0.0 in
11:51 30.6 °F 11.6 °F 1013.8 in South 4.2 mph 4.2 mph 31 % 0.0 in
11:56 31.0 °F 11.4 °F 1013.8 in SSW 11.1 mph 11.1 mph 30 % 0.0 in
12:01 31.3 °F 12.2 °F 1013.8 in SSW 7.4 mph 7.4 mph 31 % 0.0 in
12:06 31.0 °F 10.9 °F 1013.8 in SSW 7.4 mph 7.4 mph 29 % 0.0 in
12:11 31.1 °F 10.4 °F 1013.8 in East 7.4 mph 7.4 mph 28 % 0.0 in
12:16 31.0 °F 10.3 °F 1013.8 in SSW 11.1 mph 11.1 mph 28 % 0.0 in
12:21 31.4 °F 11.2 °F 1013.8 in SSW 5.6 mph 5.6 mph 29 % 0.0 in
12:26 32.1 °F 11.3 °F 1013.8 in NW 3.7 mph 3.7 mph 28 % 0.0 in
12:31 32.2 °F 11.4 °F 1013.8 in South 9.3 mph 9.3 mph 28 % 0.0 in
12:36 32.5 °F 11.6 °F 1014.8 in SSW 11.1 mph 11.1 mph 28 % 0.0 in
12:41 32.1 °F 10.7 °F 1014.8 in WSW 5.6 mph 5.6 mph 27 % 0.0 in
12:46 31.8 °F 10.5 °F 1014.8 in SSE 3.7 mph 3.7 mph 27 % 0.0 in
12:51 32.5 °F 11.1 °F 1013.8 in SSW 9.3 mph 9.3 mph 27 % 0.0 in
12:56 32.7 °F 11.3 °F 1013.8 in NNE 5.3 mph 5.3 mph 27 % 0.0 in
13:01 32.9 °F 11.4 °F 1013.8 in WSW 5.6 mph 5.6 mph 27 % 0.0 in
13:06 32.5 °F 10.5 °F 1013.8 in SE 3.7 mph 3.7 mph 26 % 0.0 in
13:11 32.7 °F 10.7 °F 1013.8 in SSW 3.7 mph 3.7 mph 26 % 0.0 in
13:16 33.0 °F 10.9 °F 1013.8 in SW 11.1 mph 11.1 mph 26 % 0.0 in
13:21 33.1 °F 11.0 °F 1012.8 in South 9.3 mph 9.3 mph 26 % 0.0 in
13:26 33.3 °F 10.6 °F 1012.8 in SW 5.0 mph 5.0 mph 25 % 0.0 in
13:31 34.0 °F 11.8 °F 1012.8 in SE 5.6 mph 5.6 mph 26 % 0.0 in
13:36 33.5 °F 11.4 °F 1012.8 in West 9.3 mph 9.3 mph 26 % 0.0 in
13:41 33.4 °F 10.7 °F 1012.8 in SSW 11.1 mph 11.1 mph 25 % 0.0 in
13:46 33.5 °F 10.8 °F 1012.8 in SW 9.3 mph 9.3 mph 25 % 0.0 in
13:51 33.6 °F 10.8 °F 1012.8 in SW 7.9 mph 7.9 mph 25 % 0.0 in
13:56 33.4 °F 10.1 °F 1012.8 in South 11.1 mph 11.1 mph 24 % 0.0 in
14:02 33.2 °F 9.9 °F 1012.8 in SSW 9.3 mph 9.5 mph 24 % 0.0 in
14:07 33.5 °F 10.2 °F 1011.7 in WSW 6.9 mph 6.9 mph 24 % 0.0 in
14:12 33.1 °F 9.2 °F 1011.7 in SW 11.1 mph 11.1 mph 23 % 0.0 in
14:17 33.1 °F 9.2 °F 1011.7 in WSW 14.8 mph 14.8 mph 23 % 0.0 in
14:22 33.1 °F 9.2 °F 1011.7 in SW 9.3 mph 9.3 mph 23 % 0.0 in
14:27 33.5 °F 9.5 °F 1011.7 in SW 14.5 mph 14.5 mph 23 % 0.0 in
14:32 33.3 °F 9.3 °F 1011.7 in SW 14.8 mph 14.8 mph 23 % 0.0 in
14:37 32.8 °F 8.3 °F 1011.7 in SSW 14.8 mph 14.8 mph 22 % 0.0 in
14:42 32.7 °F 8.2 °F 1011.7 in SW 16.7 mph 16.7 mph 22 % 0.0 in
14:47 33.1 °F 8.6 °F 1011.7 in SW 3.7 mph 5.8 mph 22 % 0.0 in
14:52 33.2 °F 8.6 °F 1011.7 in SSE 11.4 mph 11.4 mph 22 % 0.0 in
14:57 33.0 °F 8.4 °F 1011.7 in SSE 11.1 mph 11.1 mph 22 % 0.0 in
15:02 33.1 °F 8.6 °F 1011.7 in SW 9.3 mph 9.3 mph 22 % 0.0 in
15:07 32.8 °F 8.3 °F 1011.7 in SW 9.3 mph 9.3 mph 22 % 0.0 in
15:12 32.7 °F 8.8 °F 1011.7 in SSW 16.7 mph 16.7 mph 23 % 0.0 in
15:17 32.6 °F 8.8 °F 1011.7 in SW 9.3 mph 9.3 mph 23 % 0.0 in
15:22 32.5 °F 8.7 °F 1011.7 in WNW 9.3 mph 9.3 mph 23 % 0.0 in
15:27 31.7 °F 8.0 °F 1011.7 in SW 16.7 mph 16.7 mph 23 % 0.0 in
15:32 31.8 °F 8.7 °F 1011.7 in SW 16.7 mph 16.7 mph 24 % 0.0 in
15:37 32.3 °F 8.5 °F 1011.7 in SSW 9.3 mph 9.3 mph 23 % 0.0 in
15:42 31.9 °F 8.8 °F 1011.7 in SSE 11.1 mph 11.1 mph 24 % 0.0 in
15:47 31.7 °F 8.7 °F 1011.7 in SW 20.4 mph 20.4 mph 24 % 0.0 in
15:52 31.4 °F 8.4 °F 1011.7 in SW 24.1 mph 24.1 mph 24 % 0.0 in
15:57 31.6 °F 8.6 °F 1011.7 in SSW 7.4 mph 7.4 mph 24 % 0.0 in
16:02 31.8 °F 8.7 °F 1011.7 in SW 14.8 mph 14.8 mph 24 % 0.0 in
16:07 31.5 °F 8.5 °F 1011.7 in SW 11.1 mph 11.1 mph 24 % 0.0 in
16:12 31.6 °F 8.6 °F 1011.7 in SSW 13.0 mph 13.0 mph 24 % 0.0 in
16:17 31.5 °F 8.5 °F 1011.7 in SW 18.5 mph 18.5 mph 24 % 0.0 in
16:22 31.4 °F 8.4 °F 1010.7 in SSW 16.7 mph 16.7 mph 24 % 0.0 in
16:27 31.5 °F 8.5 °F 1010.7 in South 11.1 mph 11.1 mph 24 % 0.0 in
16:32 31.1 °F 8.2 °F 1010.7 in SW 18.5 mph 18.5 mph 24 % 0.0 in
16:37 31.4 °F 9.0 °F 1010.7 in SW 10.3 mph 10.3 mph 25 % 0.0 in
16:42 31.7 °F 9.3 °F 1010.7 in SW 11.1 mph 11.1 mph 25 % 0.0 in
16:47 31.4 °F 9.0 °F 1010.7 in SW 18.5 mph 18.5 mph 25 % 0.0 in
16:52 31.2 °F 8.8 °F 1010.7 in South 13.7 mph 13.7 mph 25 % 0.0 in
16:57 31.1 °F 8.7 °F 1010.7 in SW 13.0 mph 13.0 mph 25 % 0.0 in
17:02 30.8 °F 8.5 °F 1010.7 in West 14.8 mph 14.8 mph 25 % 0.0 in
17:07 31.0 °F 8.7 °F 1010.7 in SW 16.7 mph 16.7 mph 25 % 0.0 in
17:12 30.9 °F 8.6 °F 1010.7 in SW 11.4 mph 11.4 mph 25 % 0.0 in
17:17 30.5 °F 8.2 °F 1010.7 in SW 16.7 mph 16.7 mph 25 % 0.0 in
17:22 31.0 °F 8.7 °F 1010.7 in West 11.4 mph 11.4 mph 25 % 0.0 in
17:27 31.1 °F 8.7 °F 1010.7 in SSE 13.7 mph 13.7 mph 25 % 0.0 in
17:32 30.9 °F 9.2 °F 1010.7 in SW 17.2 mph 17.2 mph 26 % 0.0 in
17:37 30.8 °F 9.1 °F 1010.7 in WSW 13.7 mph 13.7 mph 26 % 0.0 in
17:42 30.4 °F 8.2 °F 1010.7 in SW 16.7 mph 16.7 mph 25 % 0.0 in
17:47 30.2 °F 8.0 °F 1010.7 in SSW 11.1 mph 11.1 mph 25 % 0.0 in
17:52 30.1 °F 7.9 °F 1011.7 in SSW 14.8 mph 14.8 mph 25 % 0.0 in
17:57 30.1 °F 7.9 °F 1011.7 in SSW 11.1 mph 11.1 mph 25 % 0.0 in
18:02 30.1 °F 7.9 °F 1011.7 in South 14.8 mph 14.8 mph 25 % 0.0 in
18:07 29.7 °F 7.6 °F 1010.7 in West 9.5 mph 9.5 mph 25 % 0.0 in
18:12 29.7 °F 7.6 °F 1010.7 in NW 13.0 mph 13.0 mph 25 % 0.0 in
18:17 29.6 °F 7.5 °F 1010.7 in West 14.8 mph 14.8 mph 25 % 0.0 in
18:22 29.5 °F 7.4 °F 1010.7 in WSW 14.0 mph 14.0 mph 25 % 0.0 in
18:27 29.3 °F 7.2 °F 1010.7 in WSW 13.0 mph 13.0 mph 25 % 0.0 in
18:32 29.2 °F 7.2 °F 1010.7 in WSW 14.8 mph 14.8 mph 25 % 0.0 in
18:37 28.9 °F 6.9 °F 1010.7 in SSW 18.5 mph 18.5 mph 25 % 0.0 in
18:42 28.9 °F 6.9 °F 1010.7 in SW 13.0 mph 13.0 mph 25 % 0.0 in
18:47 28.7 °F 6.7 °F 1010.7 in SW 15.6 mph 15.6 mph 25 % 0.0 in
18:52 28.7 °F 6.7 °F 1010.0 in WSW 16.7 mph 16.7 mph 25 % 0.0 in
18:57 28.6 °F 6.6 °F 1010.0 in SSE 24.8 mph 24.8 mph 25 % 0.0 in
19:02 28.4 °F 5.9 °F 1010.0 in SW 11.1 mph 11.1 mph 24 % 0.0 in
19:07 28.3 °F 5.8 °F 1010.0 in SW 16.4 mph 16.4 mph 24 % 0.0 in
19:12 28.2 °F 5.7 °F 1010.0 in West 19.5 mph 19.5 mph 24 % 0.0 in
19:17 28.1 °F 5.6 °F 1010.0 in SW 20.4 mph 20.4 mph 24 % 0.0 in
19:22 28.0 °F 5.6 °F 1010.0 in SSW 14.8 mph 14.8 mph 24 % 0.0 in
19:25 21.3 °F 8.2 °F 1012.8 in WSW 1.6 mph 3.2 mph 43 % 0.0 in
19:27 28.0 °F 5.6 °F 1010.0 in SSW 16.7 mph 16.7 mph 24 % 0.0 in
19:32 27.9 °F 6.1 °F 1010.0 in SW 11.1 mph 11.1 mph 25 % 0.0 in
19:35 21.2 °F 8.4 °F 1012.8 in Calm   3.2 mph 44 % 0.0 in
19:37 27.8 °F 5.9 °F 1010.0 in South 7.4 mph 7.4 mph 25 % 0.0 in
19:42 27.8 °F 5.9 °F 1010.0 in SW 7.4 mph 7.4 mph 25 % 0.0 in
19:45 21.1 °F 8.4 °F 1012.8 in Calm     44 % 0.0 in
19:47 27.6 °F 5.8 °F 1010.0 in WSW 9.3 mph 9.3 mph 25 % 0.0 in
19:52 27.5 °F 5.7 °F 1010.0 in WSW 9.3 mph 9.3 mph 25 % 0.0 in
19:55 20.6 °F 8.6 °F 1013.8 in WNW 1.6 mph 1.6 mph 46 % 0.0 in
19:57 27.4 °F 5.6 °F 1010.0 in NW 9.7 mph 9.7 mph 25 % 0.0 in
20:02 27.2 °F 5.4 °F 1010.0 in SW 11.1 mph 11.1 mph 25 % 0.0 in
20:05 20.3 °F 8.6 °F 1013.8 in ENE 1.6 mph 3.2 mph 47 % 0.0 in
20:07 27.1 °F 5.9 °F 1010.0 in SSW 7.4 mph 7.4 mph 26 % 0.0 in
20:12 27.0 °F 5.8 °F 1010.0 in South 7.4 mph 7.4 mph 26 % 0.0 in
20:15 20.0 °F 8.7 °F 1013.8 in Calm     48 % 0.0 in
20:17 26.9 °F 5.8 °F 1010.0 in SW 3.7 mph 3.7 mph 26 % 0.0 in
20:22 26.8 °F 5.7 °F 1010.0 in SSW 9.3 mph 9.3 mph 26 % 0.0 in
20:25 19.7 °F 8.7 °F 1013.8 in Calm     49 % 0.0 in
20:27 26.7 °F 5.6 °F 1010.0 in SW 5.6 mph 5.6 mph 26 % 0.0 in
20:32 26.6 °F 5.5 °F 1010.0 in SW 9.3 mph 9.3 mph 26 % 0.0 in
20:35 19.7 °F 8.7 °F 1013.8 in Calm   1.6 mph 49 % 0.0 in
20:37 26.5 °F 5.4 °F 1010.0 in SW 4.7 mph 4.7 mph 26 % 0.0 in
20:42 26.3 °F 5.3 °F 1010.0 in SSW 7.4 mph 7.4 mph 26 % 0.0 in
20:45 19.7 °F 8.7 °F 1012.8 in Calm     49 % 0.0 in
20:47 26.0 °F 5.0 °F 1010.0 in SSW 5.6 mph 5.6 mph 26 % 0.0 in
20:50 19.6 °F 8.6 °F 1012.8 in Calm     49 % 0.0 in
20:52 25.8 °F 5.4 °F 1010.0 in SW 1.9 mph 1.9 mph 27 % 0.0 in
20:57 25.7 °F 5.3 °F 1010.0 in SW 3.7 mph 3.7 mph 27 % 0.0 in
20:58 25.6 °F 5.2 °F 1010.0 in SW 4.2 mph 4.2 mph 27 % 0.0 in
21:00 19.4 °F 8.7 °F 1013.8 in Calm     50 % 0.0 in
21:03 25.4 °F 5.1 °F 1010.0 in SSW 3.7 mph 3.7 mph 27 % 0.0 in
21:08 25.2 °F 4.9 °F 1010.0 in SW 3.7 mph 3.7 mph 27 % 0.0 in
21:10 19.2 °F 8.5 °F 1013.8 in Calm     50 % 0.0 in
21:13 25.1 °F 4.8 °F 1010.0 in SW 3.7 mph 3.7 mph 27 % 0.0 in
21:18 24.9 °F 5.1 °F 1010.0 in WSW 3.9 mph 3.9 mph 28 % 0.0 in
21:23 24.8 °F 5.6 °F 1010.0 in Calm   1.4 mph 29 % 0.0 in
21:28 24.7 °F 5.4 °F 1010.0 in West 4.2 mph   29 % 0.0 in
21:30 19.2 °F 8.8 °F 1013.8 in Calm     51 % 0.0 in
21:33 24.5 °F 5.3 °F 1010.0 in WSW 3.9 mph 3.9 mph 29 % 0.0 in
21:38 24.4 °F 5.2 °F 1010.7 in SW 7.4 mph 7.4 mph 29 % 0.0 in
21:40 19.0 °F 8.9 °F 1013.8 in Calm     52 % 0.0 in
21:43 24.3 °F 5.1 °F 1010.7 in SW 3.7 mph 3.7 mph 29 % 0.0 in
21:48 24.2 °F 5.1 °F 1010.7 in WSW 2.6 mph 2.6 mph 29 % 0.0 in
21:50 19.0 °F 9.2 °F 1013.8 in Calm     53 % 0.0 in
21:53 24.1 °F 4.9 °F 1010.7 in SW 1.9 mph 1.9 mph 29 % 0.0 in
21:58 24.1 °F 5.4 °F 1010.7 in WSW 3.7 mph 3.7 mph 30 % 0.0 in
22:03 24.0 °F 5.3 °F 1010.7 in West 3.7 mph 3.7 mph 30 % 0.0 in
22:08 23.7 °F 5.1 °F 1011.7 in WSW 3.7 mph 3.7 mph 30 % 0.0 in
22:10 19.0 °F 9.2 °F 1013.8 in Calm     53 % 0.0 in
22:13 23.5 °F 4.9 °F 1011.7 in West 4.7 mph 4.7 mph 30 % 0.0 in
22:18 23.3 °F 5.2 °F 1011.7 in SW 4.7 mph 4.7 mph 31 % 0.0 in
22:20 18.5 °F 9.3 °F 1013.8 in Calm   1.6 mph 55 % 0.0 in
22:23 23.2 °F 5.1 °F 1011.7 in SW 2.3 mph 2.3 mph 31 % 0.0 in
22:28 23.0 °F 5.4 °F 1011.7 in SW 3.7 mph 3.7 mph 32 % 0.0 in
22:30 17.9 °F 8.7 °F 1013.8 in NE 1.6 mph 3.2 mph 55 % 0.0 in
22:33 22.9 °F 5.8 °F 1011.7 in WSW 3.9 mph 3.9 mph 33 % 0.0 in
22:38 22.8 °F 5.7 °F 1011.7 in West 5.6 mph 5.6 mph 33 % 0.0 in
22:40 17.6 °F 8.7 °F 1013.8 in Calm     56 % 0.0 in
22:43 22.8 °F 6.1 °F 1011.7 in West 5.6 mph 5.6 mph 34 % 0.0 in
22:48 22.8 °F 6.6 °F 1011.7 in WSW 3.7 mph 3.7 mph 35 % 0.0 in
22:50 17.1 °F 8.5 °F 1013.8 in Calm   3.2 mph 57 % 0.0 in
22:53 22.7 °F 6.8 °F 1011.7 in WSW 3.9 mph 3.9 mph 36 % 0.0 in
22:58 22.6 °F 7.2 °F 1011.7 in WSW 3.7 mph 3.7 mph 37 % 0.0 in
23:00 17.0 °F 8.7 °F 1013.8 in Calm   1.6 mph 58 % 0.0 in
23:03 22.4 °F 7.0 °F 1011.7 in West 3.9 mph 3.9 mph 37 % 0.0 in
23:08 22.3 °F 7.3 °F 1010.7 in West 2.3 mph 2.3 mph 38 % 0.0 in
23:10 16.8 °F 9.0 °F 1013.8 in Calm     60 % 0.0 in
23:13 22.3 °F 7.3 °F 1010.7 in WSW 3.9 mph 3.9 mph 38 % 0.0 in
23:18 22.2 °F 7.6 °F 1010.7 in SW 3.7 mph 3.7 mph 39 % 0.0 in
23:20 16.6 °F 9.1 °F 1013.8 in Calm   3.2 mph 61 % 0.0 in
23:23 22.1 °F 7.5 °F 1011.7 in SW 3.7 mph 3.7 mph 39 % 0.0 in
23:28 22.0 °F 7.8 °F 1011.7 in West 3.7 mph 3.7 mph 40 % 0.0 in
23:30 16.5 °F 8.9 °F 1014.8 in NE 1.6 mph 3.2 mph 61 % 0.0 in
23:33 22.0 °F 7.8 °F 1011.7 in West 3.7 mph 3.7 mph 40 % 0.0 in
23:38 21.9 °F 7.7 °F 1011.7 in West 3.7 mph 3.7 mph 40 % 0.0 in
23:40 16.4 °F 9.1 °F 1013.8 in Calm   3.2 mph 62 % 0.0 in
23:43 21.9 °F 8.1 °F 1011.7 in West 2.6 mph 2.6 mph 41 % 0.0 in
23:48 21.8 °F 7.9 °F 1011.7 in SW 1.9 mph   41 % 0.0 in
23:50 16.4 °F 8.8 °F 1013.8 in SW 1.6 mph 3.2 mph 61 % 0.0 in
23:53 21.8 °F 7.9 °F 1011.7 in West 3.7 mph 3.7 mph 41 % 0.0 in
23:58 21.7 °F 8.2 °F 1011.7 in West 1.9 mph   42 % 0.0 in
Meteo Sesrovires
Elogis d' Weather Underground - 1.5 mb

Guio original per  Jim McMurry - jmcmurry@mwt.net Adaptat per a la plantilla per  Wim van der Kuil - Leuven-Template.eu

Trobareu la nostra informacio del temps tambe a:

Weather Underground

AWEKAS